Portada
METAR-TAF:

METAR-TAF

Aeroports :

David, Panamà

latitud: 08-24N, longitud: 082-25W, altitud: 29 m

Observació

L'informe es va fer fa 8 hores i 0 minuts, a les 03:00 UTC
Vent 2 kt del Nord
Temperatura 26°C
Humitat 94%
Pressió 1010 hPa
Visibilitat 10 km o més
Escasses núvols a una alçada de 1500 ft, Cumulonimbus.
Cel ennuvolat a una alçada de 8000 ft
tempesta

METAR: MPDA 170300Z 35002KT 9999 TS FEW015CB BKN080 26/25 Q1010

Hora: 06:00 (11:00 UTC)

Pronòstic

L'informe es va fer fa 11 hores i 30 minuts, a les 23:30 UTC
Pronòstic vàlid del 17 a les 00 UTC al 17 a les 12 UTC
Vent 7 kt del Sud/Sud-Oest
Visibilitat 10 km o més
Núvols disperses a una alçada de 1800 ft

TAF: MPDA 162330Z 1700/1712 21007KT 9999 SCT018

Observacions i pronòstics meteorològics de més de 4000 aeroports (METAR i TAF).

Les estacions disponibles són els punts grocs i vermells al mapa.

Posi el ratolí al punt desitjat per veure el nom de l'estació.

Feu clic per veure les observacions i els pronòstics meteorològics.

Per canviar el mapa: feu clic els botons verds amb una creu de color negre per apropar; al botó verd amb un guió per allunyar la imatge; o en les fletxes verdes per a mapes adjacents.


METAR-TAF: